createdAt,value
2023-02-11T00:02:47.451Z,101372.63
2023-02-11T00:07:49.504Z,101371.09
2023-02-11T00:12:51.140Z,101359.97
2023-02-11T00:17:52.731Z,101357.25
2023-02-11T00:22:54.337Z,101351.78
2023-02-11T00:27:55.942Z,101356.31
2023-02-11T00:32:57.730Z,101336.78
2023-02-11T00:38:00.380Z,101336.59
2023-02-11T00:43:01.983Z,101326.31
2023-02-11T00:48:03.684Z,101282.50
2023-02-11T00:53:05.318Z,101285.75
2023-02-11T00:58:06.930Z,101276.38
2023-02-11T01:03:08.585Z,101249.03
2023-02-11T01:08:10.304Z,101233.34
2023-02-11T01:13:12.261Z,101226.16
2023-02-11T01:18:13.888Z,101226.69
2023-02-11T01:23:16.577Z,101244.50
2023-02-11T01:28:24.790Z,101256.03
2023-02-11T01:33:27.096Z,101259.81
2023-02-11T01:38:28.961Z,101254.34
2023-02-11T01:43:41.811Z,101253.91
2023-02-11T01:48:47.678Z,101249.81
2023-02-11T01:54:08.888Z,101240.91
2023-02-11T01:59:17.312Z,101232.16
2023-02-11T02:04:20.413Z,101224.72
2023-02-11T02:09:31.812Z,101222.38
2023-02-11T02:14:33.550Z,101215.88
2023-02-11T02:19:59.848Z,101219.50
2023-02-11T02:25:29.596Z,101222.28
2023-02-11T02:30:56.094Z,101229.41
2023-02-11T02:36:29.957Z,101226.44
2023-02-11T02:41:34.385Z,101207.22
2023-02-11T02:46:36.828Z,101199.41
2023-02-11T02:51:53.808Z,101184.56
2023-02-11T02:57:07.502Z,101184.63
2023-02-11T03:09:12.950Z,101190.28
2023-02-11T03:14:17.241Z,101189.72
2023-02-11T03:19:22.808Z,101210.31
2023-02-11T03:24:30.693Z,101215.88
2023-02-11T03:30:04.426Z,101215.78
2023-02-11T03:35:12.177Z,101187.19
2023-02-11T03:40:19.121Z,101180.28
2023-02-11T03:45:23.771Z,101153.28
2023-02-11T03:50:27.319Z,101135.06
2023-02-11T03:55:31.191Z,101123.06
2023-02-11T04:00:36.901Z,101134.97
2023-02-11T04:05:39.087Z,101137.13
2023-02-11T04:10:40.800Z,101114.16
2023-02-11T04:15:42.477Z,101105.84
2023-02-11T04:20:44.076Z,101110.59
2023-02-11T04:25:45.703Z,101124.34
2023-02-11T04:30:50.589Z,101137.44
2023-02-11T04:35:52.522Z,101138.09
2023-02-11T04:40:54.294Z,101140.09
2023-02-11T04:45:59.381Z,101152.19
2023-02-11T04:51:02.660Z,101160.38
2023-02-11T04:56:04.516Z,101166.88
2023-02-11T05:01:11.071Z,101160.13
2023-02-11T05:06:12.808Z,101164.53
2023-02-11T05:11:18.090Z,101161.75
2023-02-11T05:16:19.866Z,101167.06
2023-02-11T05:21:21.493Z,101171.66
2023-02-11T05:26:23.113Z,101168.03
2023-02-11T05:31:24.725Z,101153.69
2023-02-11T05:36:26.332Z,101140.84
2023-02-11T05:41:27.984Z,101139.84
2023-02-11T05:46:29.675Z,101135.91
2023-02-11T05:51:31.301Z,101130.72
2023-02-11T05:56:33.039Z,101135.75
2023-02-11T06:01:34.718Z,101139.28
2023-02-11T06:06:36.609Z,101127.47
2023-02-11T06:11:38.461Z,101124.44
2023-02-11T06:16:40.164Z,101125.13
2023-02-11T06:21:44.271Z,101120.34
2023-02-11T06:26:46.179Z,101116.31
2023-02-11T06:31:47.830Z,101103.78
2023-02-11T06:36:49.490Z,101115.66
2023-02-11T06:41:51.087Z,101100.84
2023-02-11T06:46:52.771Z,101103.78
2023-02-11T06:51:54.474Z,101107.47
2023-02-11T06:56:56.115Z,101108.25
2023-02-11T07:01:57.852Z,101098.41
2023-02-11T07:06:59.487Z,101099.91
2023-02-11T07:12:01.107Z,101090.50
2023-02-11T07:17:04.836Z,101096.97
2023-02-11T07:22:06.465Z,101110.13
2023-02-11T07:27:08.129Z,101108.88
2023-02-11T07:32:10.432Z,101105.34
2023-02-11T07:37:12.115Z,101114.50
2023-02-11T07:42:13.758Z,101108.88
2023-02-11T07:47:15.697Z,101110.88
2023-02-11T07:52:17.338Z,101101.66
2023-02-11T07:57:18.929Z,101091.75
2023-02-11T08:02:20.620Z,101098.78
2023-02-11T08:07:22.376Z,101105.13
2023-02-11T08:12:24.002Z,101104.38
2023-02-11T08:17:25.634Z,101104.53
2023-02-11T08:22:27.303Z,101109.19
2023-02-11T08:27:29.035Z,101111.06
2023-02-11T08:32:30.678Z,101104.88
2023-02-11T08:37:33.226Z,101110.59
2023-02-11T08:42:34.856Z,101109.69
2023-02-11T08:47:37.174Z,101103.78
2023-02-11T08:52:38.782Z,101104.25
2023-02-11T08:57:40.424Z,101118.41
2023-02-11T09:02:42.128Z,101114.63
2023-02-11T09:07:43.785Z,101122.22
2023-02-11T09:12:45.381Z,101121.88
2023-02-11T09:17:46.995Z,101125.13
2023-02-11T09:22:48.687Z,101125.97
2023-02-11T09:27:51.451Z,101131.31
2023-02-11T09:32:53.080Z,101144.56
2023-02-11T09:37:54.842Z,101155.50
2023-02-11T09:43:22.731Z,101169.81
2023-02-11T09:48:24.394Z,101156.81
2023-02-11T09:53:34.987Z,101130.69
2023-02-11T09:58:39.943Z,101138.38
2023-02-11T10:04:01.751Z,101144.13
2023-02-11T10:09:18.494Z,101143.94
2023-02-11T10:14:47.876Z,101140.41
2023-02-11T10:20:08.063Z,101130.28
2023-02-11T10:25:29.798Z,101116.16
2023-02-11T10:30:36.262Z,101120.16
2023-02-11T10:35:38.015Z,101120.56
2023-02-11T10:40:39.755Z,101123.94
2023-02-11T10:45:48.699Z,101127.53
2023-02-11T10:50:50.646Z,101133.06
2023-02-11T10:55:57.445Z,101119.66
2023-02-11T11:01:00.271Z,101097.72
2023-02-11T11:06:05.382Z,101088.53
2023-02-11T11:11:10.688Z,101092.63
2023-02-11T11:16:12.327Z,101082.38
2023-02-11T11:21:18.866Z,101084.91
2023-02-11T11:26:21.458Z,101088.25
2023-02-11T11:31:37.699Z,101103.94
2023-02-11T11:36:40.179Z,101089.34
2023-02-11T11:41:51.650Z,101066.31
2023-02-11T11:47:05.174Z,101084.50
2023-02-11T11:52:31.644Z,101080.75
2023-02-11T11:57:37.834Z,101101.75
2023-02-11T12:03:05.034Z,101108.81
2023-02-11T12:08:36.223Z,101121.56
2023-02-11T12:13:55.737Z,101113.97
2023-02-11T12:19:17.425Z,101098.66
2023-02-11T12:24:37.393Z,101103.94
2023-02-11T12:29:41.757Z,101101.06
2023-02-11T12:35:11.460Z,101100.81
2023-02-11T12:40:44.116Z,101107.84
2023-02-11T12:46:26.686Z,101093.94
2023-02-11T12:52:17.273Z,101108.66
2023-02-11T12:57:26.550Z,101107.19
2023-02-11T13:02:33.978Z,101112.63
2023-02-11T13:07:41.783Z,101096.75
2023-02-11T13:13:05.402Z,101091.97
2023-02-11T13:18:19.197Z,101089.16
2023-02-11T13:23:26.072Z,101082.34
2023-02-11T13:28:42.695Z,101068.34
2023-02-11T13:33:45.842Z,101064.41
2023-02-11T13:38:57.927Z,101059.16
2023-02-11T13:44:01.673Z,101074.44
2023-02-11T13:49:03.467Z,101071.19
2023-02-11T13:54:06.347Z,101062.22
2023-02-11T13:59:32.998Z,101050.63
2023-02-11T14:05:06.909Z,101034.56
2023-02-11T14:10:42.249Z,101060.81
2023-02-11T14:15:46.490Z,101067.75
2023-02-11T14:20:49.152Z,101071.66
2023-02-11T14:26:00.578Z,101081.22
2023-02-11T14:31:12.490Z,101076.81
2023-02-11T14:36:47.525Z,101069.56
2023-02-11T14:41:51.176Z,101077.69
2023-02-11T14:46:55.000Z,101089.72
2023-02-11T14:52:03.918Z,101088.94
2023-02-11T14:57:17.380Z,101076.31
2023-02-11T15:02:23.991Z,101068.53
2023-02-11T15:07:25.744Z,101069.50
2023-02-11T15:12:28.539Z,101076.44
2023-02-11T15:17:32.014Z,101082.38
2023-02-11T15:22:36.958Z,101087.81
2023-02-11T15:27:43.961Z,101086.09
2023-02-11T15:32:45.809Z,101097.94
2023-02-11T15:37:50.190Z,101101.34
2023-02-11T15:43:01.706Z,101097.56
2023-02-11T15:48:16.194Z,101099.25
2023-02-11T15:53:20.509Z,101096.03
2023-02-11T15:58:23.769Z,101089.38
2023-02-11T16:03:33.096Z,101099.56
2023-02-11T16:08:35.534Z,101100.84
2023-02-11T16:13:46.459Z,101096.19
2023-02-11T16:19:03.368Z,101113.72
2023-02-11T16:24:08.236Z,101125.25
2023-02-11T16:29:14.493Z,101145.66
2023-02-11T16:34:20.374Z,101151.41
2023-02-11T16:39:22.619Z,101153.78
2023-02-11T16:44:24.301Z,101150.75
2023-02-11T16:49:31.594Z,101157.91
2023-02-11T16:54:33.906Z,101152.69
2023-02-11T16:59:35.521Z,101154.16
2023-02-11T17:04:37.203Z,101143.50
2023-02-11T17:09:39.016Z,101161.66
2023-02-11T17:14:40.803Z,101163.03
2023-02-11T17:19:42.402Z,101156.72
2023-02-11T17:24:44.031Z,101159.63
2023-02-11T17:29:45.625Z,101161.03
2023-02-11T17:34:47.235Z,101161.44
2023-02-11T17:39:49.213Z,101181.63
2023-02-11T17:44:50.875Z,101188.47
2023-02-11T17:49:52.501Z,101178.41
2023-02-11T17:54:55.331Z,101183.00
2023-02-11T17:59:57.170Z,101200.94
2023-02-11T18:04:59.011Z,101199.88
2023-02-11T18:10:00.728Z,101212.06
2023-02-11T18:15:02.534Z,101208.84
2023-02-11T18:20:05.013Z,101224.00
2023-02-11T18:25:08.207Z,101223.91
2023-02-11T18:30:15.722Z,101229.47
2023-02-11T18:35:17.423Z,101234.38
2023-02-11T18:40:19.146Z,101242.81
2023-02-11T18:45:20.918Z,101247.56
2023-02-11T18:50:22.718Z,101252.19
2023-02-11T18:55:25.959Z,101253.97
2023-02-11T19:00:27.730Z,101271.16
2023-02-11T19:05:33.337Z,101284.72
2023-02-11T19:10:35.130Z,101280.44
2023-02-11T19:15:41.809Z,101285.66
2023-02-11T19:20:44.340Z,101292.59
2023-02-11T19:25:47.526Z,101315.66
2023-02-11T19:30:49.250Z,101316.75
2023-02-11T19:35:51.172Z,101322.50
2023-02-11T19:40:56.985Z,101334.16
2023-02-11T19:45:58.681Z,101333.09
2023-02-11T19:51:10.863Z,101342.25
2023-02-11T19:56:15.570Z,101333.38
2023-02-11T20:01:20.539Z,101345.88
2023-02-11T20:06:25.296Z,101349.19
2023-02-11T20:11:30.051Z,101364.75
2023-02-11T20:16:46.995Z,101363.47
2023-02-11T20:21:53.386Z,101371.56
2023-02-11T20:26:57.820Z,101375.09
2023-02-11T20:31:59.813Z,101381.78
2023-02-11T20:37:04.113Z,101371.03
2023-02-11T20:42:05.841Z,101362.78
2023-02-11T20:47:07.468Z,101352.13
2023-02-11T20:52:09.088Z,101339.63
2023-02-11T20:57:10.692Z,101345.53
2023-02-11T21:02:13.447Z,101341.44
2023-02-11T21:07:15.099Z,101342.09
2023-02-11T21:12:16.736Z,101357.38
2023-02-11T21:17:18.513Z,101367.53
2023-02-11T21:22:20.150Z,101372.88
2023-02-11T21:27:21.962Z,101377.66
2023-02-11T21:32:23.553Z,101375.00
2023-02-11T21:37:25.209Z,101395.41
2023-02-11T21:42:26.836Z,101403.41
2023-02-11T21:47:28.478Z,101399.78
2023-02-11T21:52:30.073Z,101409.38
2023-02-11T21:57:31.788Z,101410.16
2023-02-11T22:02:33.840Z,101410.66
2023-02-11T22:07:36.499Z,101413.88
2023-02-11T22:12:38.209Z,101425.63
2023-02-11T22:17:39.880Z,101426.84
2023-02-11T22:22:41.481Z,101434.06
2023-02-11T22:27:43.329Z,101431.19
2023-02-11T22:32:45.023Z,101437.19
2023-02-11T22:37:46.679Z,101439.44
2023-02-11T22:42:48.293Z,101459.44
2023-02-11T22:47:49.892Z,101459.13
2023-02-11T22:52:51.499Z,101459.25
2023-02-11T22:57:53.893Z,101463.50
2023-02-11T23:02:56.185Z,101480.66
2023-02-11T23:07:57.891Z,101489.34
2023-02-11T23:12:59.499Z,101481.84
2023-02-11T23:18:01.137Z,101485.53
2023-02-11T23:23:03.902Z,101494.28
2023-02-11T23:28:05.529Z,101491.94
2023-02-11T23:33:07.185Z,101494.94
2023-02-11T23:38:08.829Z,101508.41
2023-02-11T23:43:10.581Z,101498.81
2023-02-11T23:48:12.193Z,101508.91
2023-02-11T23:53:14.066Z,101496.88
2023-02-11T23:58:15.829Z,101501.47
